Time;durP1;ratioP1;P1;durP2;ratioP2;P2;SDS_P1;SDS_P2;PMS_P1;PMS_P2;Temp;Humidity;BMP_temperature;BMP_pressure;BME280_temperature;BME280_humidity;BME280_pressure;Samples;Min_cycle;Max_cycle;Signal;HPM_P1;HPM_P2
2023/04/28 00:00:53;;;;;;;8.70;5.17;;;6.90;99.90;;;;;;5089239;28;20421;-76
2023/04/28 00:03:19;;;;;;;9.82;5.63;;;6.90;99.90;;;;;;5086782;28;20402;-76
2023/04/28 00:05:45;;;;;;;10.10;5.50;;;6.90;99.90;;;;;;5069651;28;20402;-76
2023/04/28 00:08:11;;;;;;;9.88;5.38;;;6.90;99.90;;;;;;5087300;28;20468;-76
2023/04/28 00:10:36;;;;;;;7.80;5.30;;;6.90;99.90;;;;;;5086689;28;20398;-76
2023/04/28 00:13:02;;;;;;;8.77;5.20;;;6.90;99.90;;;;;;5086519;28;20413;-75
2023/04/28 00:15:28;;;;;;;6.97;5.20;;;6.90;99.90;;;;;;5086188;28;20413;-76
2023/04/28 00:17:54;;;;;;;8.30;5.03;;;7.00;99.90;;;;;;5086841;28;20514;-76
2023/04/28 00:20:19;;;;;;;7.63;4.95;;;6.90;99.90;;;;;;5087620;28;20405;-76
2023/04/28 00:22:45;;;;;;;8.77;5.17;;;7.00;99.90;;;;;;5086061;28;20426;-76
2023/04/28 00:25:11;;;;;;;8.20;4.90;;;6.90;99.90;;;;;;5086558;28;20771;-75
2023/04/28 00:27:36;;;;;;;8.03;4.77;;;6.90;99.90;;;;;;5085966;28;20414;-76
2023/04/28 00:30:02;;;;;;;10.50;5.97;;;6.90;99.90;;;;;;5087263;28;20508;-76
2023/04/28 00:32:28;;;;;;;7.65;5.43;;;6.90;99.90;;;;;;5086900;28;20426;-76
2023/04/28 00:34:53;;;;;;;8.27;5.93;;;6.90;99.90;;;;;;5086175;28;20982;-73
2023/04/28 00:37:19;;;;;;;8.10;6.03;;;6.90;99.90;;;;;;5087113;28;20421;-74
2023/04/28 00:39:47;;;;;;;10.30;6.10;;;6.80;99.90;;;;;;5086195;28;20463;-74
2023/04/28 00:42:14;;;;;;;9.70;5.57;;;6.80;99.90;;;;;;5087895;28;20402;-74
2023/04/28 00:44:40;;;;;;;7.60;5.50;;;6.80;99.90;;;;;;5085750;28;20402;-74
2023/04/28 00:47:07;;;;;;;8.50;5.40;;;6.80;99.90;;;;;;5086014;28;20406;-74
2023/04/28 00:49:34;;;;;;;8.43;5.37;;;6.70;99.90;;;;;;5085517;28;20434;-74
2023/04/28 00:52:05;;;;;;;8.32;5.93;;;6.70;99.90;;;;;;5086976;28;20413;-74
2023/04/28 00:54:33;;;;;;;8.98;5.53;;;6.70;99.90;;;;;;5067266;28;20475;-74
2023/04/28 00:57:02;;;;;;;8.90;5.40;;;6.70;99.90;;;;;;5090765;28;20408;-73
2023/04/28 00:59:29;;;;;;;9.02;5.40;;;6.70;99.90;;;;;;5088372;28;20402;-74
2023/04/28 01:01:55;;;;;;;9.65;5.30;;;6.70;99.90;;;;;;5091026;28;20409;-74
2023/04/28 01:04:21;;;;;;;7.93;4.90;;;6.70;99.90;;;;;;5091182;28;20542;-74
2023/04/28 01:06:51;;;;;;;7.40;5.13;;;6.70;99.90;;;;;;5078986;28;20409;-74
2023/04/28 01:09:16;;;;;;;8.60;5.07;;;6.70;99.90;;;;;;5091010;28;20516;-74
2023/04/28 01:11:42;;;;;;;8.57;5.30;;;6.70;99.90;;;;;;5078693;28;20518;-74
2023/04/28 01:14:09;;;;;;;8.07;5.70;;;6.70;99.90;;;;;;5085295;28;20455;-74
2023/04/28 01:16:36;;;;;;;8.32;5.20;;;6.70;99.90;;;;;;5073893;28;20413;-74
2023/04/28 01:19:03;;;;;;;7.85;5.35;;;6.70;99.90;;;;;;5081354;28;20419;-74
2023/04/28 01:21:33;;;;;;;11.77;6.07;;;6.70;99.90;;;;;;5090779;28;20820;-74
2023/04/28 01:24:00;;;;;;;9.37;6.03;;;6.70;99.90;;;;;;5106925;28;20409;-74
2023/04/28 01:26:26;;;;;;;9.40;6.30;;;6.70;99.90;;;;;;5094130;28;20459;-74
2023/04/28 01:28:52;;;;;;;9.50;6.03;;;6.70;99.90;;;;;;5086271;28;20442;-74
2023/04/28 01:31:17;;;;;;;8.88;6.43;;;6.60;99.90;;;;;;5096485;28;20404;-74
2023/04/28 01:33:43;;;;;;;9.25;6.45;;;6.70;99.90;;;;;;5075577;28;20488;-74
2023/04/28 01:36:08;;;;;;;9.27;6.33;;;6.60;99.90;;;;;;5104252;28;20492;-74
2023/04/28 01:38:34;;;;;;;10.52;6.97;;;6.60;99.90;;;;;;5090331;28;20451;-74
2023/04/28 01:41:01;;;;;;;9.87;7.03;;;6.60;99.90;;;;;;5086589;28;20409;-73
2023/04/28 01:43:27;;;;;;;11.15;6.82;;;6.60;99.90;;;;;;5089474;28;20398;-74
2023/04/28 01:45:52;;;;;;;11.23;6.97;;;6.60;99.90;;;;;;5074263;28;20495;-74
2023/04/28 01:48:18;;;;;;;10.40;7.10;;;6.60;99.90;;;;;;5088214;28;20433;-74
2023/04/28 01:50:44;;;;;;;10.93;7.20;;;6.70;99.90;;;;;;5069502;28;20461;-74
2023/04/28 01:53:10;;;;;;;11.10;6.97;;;6.70;99.90;;;;;;5087025;28;20502;-74
2023/04/28 01:55:37;;;;;;;10.03;6.97;;;6.70;99.90;;;;;;5086111;28;20444;-74
2023/04/28 01:58:02;;;;;;;10.67;7.27;;;6.70;99.90;;;;;;5087870;28;20448;-73
2023/04/28 02:00:28;;;;;;;10.77;7.47;;;6.80;99.90;;;;;;5088782;28;20849;-74
2023/04/28 02:02:54;;;;;;;8.45;6.68;;;6.80;99.90;;;;;;5088379;28;20410;-74
2023/04/28 02:05:20;;;;;;;9.93;6.53;;;6.80;99.90;;;;;;5086339;28;20484;-74
2023/04/28 02:07:46;;;;;;;10.13;6.43;;;6.90;99.90;;;;;;5069697;28;20759;-74
2023/04/28 02:10:11;;;;;;;11.75;6.40;;;6.90;99.90;;;;;;5086214;28;20414;-74
2023/04/28 02:12:37;;;;;;;8.68;6.07;;;6.90;99.90;;;;;;5088176;28;20455;-74
2023/04/28 02:15:03;;;;;;;10.67;7.03;;;7.00;99.90;;;;;;5087630;28;20797;-74
2023/04/28 02:17:29;;;;;;;12.77;7.18;;;7.00;99.90;;;;;;5088160;28;20402;-74
2023/04/28 02:19:56;;;;;;;12.82;7.50;;;7.00;99.90;;;;;;5087000;28;20820;-74
2023/04/28 02:22:22;;;;;;;11.93;8.23;;;7.00;99.90;;;;;;5095125;28;20774;-74
2023/04/28 02:24:47;;;;;;;14.13;8.75;;;7.00;99.90;;;;;;5107722;28;20392;-74
2023/04/28 02:27:13;;;;;;;11.97;8.50;;;6.90;99.90;;;;;;5106956;28;20917;-74
2023/04/28 02:29:39;;;;;;;13.77;9.00;;;7.00;99.90;;;;;;5092779;28;20434;-74
2023/04/28 02:32:05;;;;;;;14.85;9.68;;;6.90;99.90;;;;;;5087508;28;20477;-74
2023/04/28 02:34:31;;;;;;;14.98;9.95;;;6.90;99.90;;;;;;5087161;28;20406;-74
2023/04/28 02:36:56;;;;;;;15.00;9.93;;;7.00;99.90;;;;;;5099198;28;21009;-74
2023/04/28 02:39:25;;;;;;;16.23;10.17;;;7.00;99.90;;;;;;5085693;28;21062;-75
2023/04/28 02:41:54;;;;;;;13.93;10.60;;;7.00;99.90;;;;;;5087625;28;20410;-75
2023/04/28 02:44:20;;;;;;;14.10;10.40;;;7.00;99.90;;;;;;5069191;28;21279;-75
2023/04/28 02:46:45;;;;;;;16.27;11.47;;;7.00;99.90;;;;;;5087760;28;20465;-75
2023/04/28 02:49:11;;;;;;;18.55;11.60;;;7.00;99.90;;;;;;5086882;28;20436;-75
2023/04/28 02:51:37;;;;;;;18.23;11.77;;;7.00;99.90;;;;;;5087840;28;20768;-75
2023/04/28 02:54:03;;;;;;;17.48;11.40;;;7.00;99.90;;;;;;5089464;28;20409;-75
2023/04/28 02:56:31;;;;;;;16.00;11.30;;;7.00;99.90;;;;;;5091267;28;20409;-75
2023/04/28 02:58:57;;;;;;;14.13;10.70;;;7.00;99.90;;;;;;5089394;28;20480;-75
2023/04/28 03:01:23;;;;;;;14.50;10.50;;;7.00;99.90;;;;;;5072139;28;20406;-75
2023/04/28 03:03:48;;;;;;;16.65;10.93;;;6.90;99.90;;;;;;5090021;28;20410;-75
2023/04/28 03:06:14;;;;;;;15.87;10.90;;;6.80;99.90;;;;;;5091417;28;20776;-75
2023/04/28 03:08:40;;;;;;;16.20;11.05;;;6.80;99.90;;;;;;5091837;28;20422;-75
2023/04/28 03:11:06;;;;;;;16.23;10.97;;;6.70;99.90;;;;;;5091427;28;20409;-75
2023/04/28 03:13:31;;;;;;;17.80;10.87;;;6.60;99.90;;;;;;5073426;28;20419;-75
2023/04/28 03:15:57;;;;;;;16.92;10.65;;;6.60;99.90;;;;;;5092521;28;20401;-75
2023/04/28 03:18:23;;;;;;;14.57;11.30;;;6.60;99.90;;;;;;5091958;28;20399;-75
2023/04/28 03:20:48;;;;;;;16.00;11.52;;;6.50;99.90;;;;;;5080342;28;20412;-75
2023/04/28 03:23:14;;;;;;;15.93;10.70;;;6.40;99.90;;;;;;5107129;28;20416;-75
2023/04/28 03:25:40;;;;;;;16.92;11.70;;;6.40;99.90;;;;;;5098714;28;20400;-74
2023/04/28 03:28:06;;;;;;;17.07;11.33;;;6.40;99.90;;;;;;5091415;28;20486;-75
2023/04/28 03:30:31;;;;;;;14.93;11.05;;;6.40;99.90;;;;;;5102496;28;20476;-75
2023/04/28 03:32:57;;;;;;;16.35;11.45;;;6.30;99.90;;;;;;5089981;28;20467;-75
2023/04/28 03:35:23;;;;;;;18.03;10.87;;;6.30;99.90;;;;;;5088826;28;20430;-75
2023/04/28 03:37:48;;;;;;;14.98;11.07;;;6.30;99.90;;;;;;5090275;28;20414;-75
2023/04/28 03:40:14;;;;;;;15.93;11.43;;;6.30;99.90;;;;;;5088193;28;20402;-75
2023/04/28 03:42:40;;;;;;;17.13;11.07;;;6.30;99.90;;;;;;5089480;28;20410;-75
2023/04/28 03:45:07;;;;;;;17.00;11.30;;;6.30;99.90;;;;;;5089034;28;20429;-75
2023/04/28 03:47:32;;;;;;;17.67;10.77;;;6.30;99.90;;;;;;5090757;28;20402;-74
2023/04/28 03:49:58;;;;;;;18.70;11.77;;;6.30;99.90;;;;;;5089436;28;21141;-75
2023/04/28 03:52:24;;;;;;;14.45;10.80;;;6.30;99.90;;;;;;5072322;28;20980;-75
2023/04/28 03:54:50;;;;;;;14.63;10.90;;;6.40;99.90;;;;;;5090696;28;20764;-75
2023/04/28 03:57:16;;;;;;;16.38;11.38;;;6.30;99.90;;;;;;5090012;28;20402;-75
2023/04/28 03:59:41;;;;;;;18.13;11.20;;;6.30;99.90;;;;;;5079706;28;20413;-75
2023/04/28 04:02:07;;;;;;;17.13;11.43;;;6.30;99.90;;;;;;5091527;28;20398;-75
2023/04/28 04:04:33;;;;;;;16.63;11.70;;;6.30;99.90;;;;;;5091806;28;20833;-75
2023/04/28 04:06:59;;;;;;;15.23;11.20;;;6.30;99.90;;;;;;5093495;28;20402;-75
2023/04/28 04:09:25;;;;;;;17.50;11.75;;;6.30;99.90;;;;;;5091739;28;20818;-75
2023/04/28 04:11:50;;;;;;;16.38;11.10;;;6.30;99.90;;;;;;5092714;28;20760;-75
2023/04/28 04:14:16;;;;;;;15.40;11.33;;;6.30;99.90;;;;;;5089748;28;20395;-75
2023/04/28 04:16:42;;;;;;;16.65;11.32;;;6.30;99.90;;;;;;5093370;28;20422;-75
2023/04/28 04:19:07;;;;;;;16.00;11.32;;;6.30;99.90;;;;;;5080883;28;20411;-75
2023/04/28 04:21:33;;;;;;;16.80;11.43;;;6.30;99.90;;;;;;5082874;28;20414;-74
2023/04/28 04:23:59;;;;;;;17.05;11.77;;;6.30;99.90;;;;;;5087800;28;20949;-75
2023/04/28 04:26:24;;;;;;;16.17;11.63;;;6.30;99.90;;;;;;5089293;28;20486;-75
2023/04/28 04:28:50;;;;;;;15.90;11.02;;;6.20;99.90;;;;;;5071046;28;20495;-75
2023/04/28 04:31:18;;;;;;;20.30;12.13;;;6.30;99.90;;;;;;5087368;28;20510;-75
2023/04/28 04:33:44;;;;;;;17.55;12.00;;;6.30;99.90;;;;;;5097317;28;20881;-75
2023/04/28 04:36:09;;;;;;;17.90;11.50;;;6.30;99.90;;;;;;5092240;28;20405;-75
2023/04/28 04:38:35;;;;;;;17.07;11.90;;;6.30;99.90;;;;;;5088091;28;20413;-75
2023/04/28 04:41:00;;;;;;;16.63;11.77;;;6.30;99.90;;;;;;5087941;28;20408;-74
2023/04/28 04:43:26;;;;;;;15.60;11.87;;;6.30;99.90;;;;;;5087394;28;20441;-75
2023/04/28 04:45:52;;;;;;;18.50;12.67;;;6.20;99.90;;;;;;5087460;28;20541;-75
2023/04/28 04:48:18;;;;;;;16.58;12.18;;;6.30;99.90;;;;;;5087454;28;21021;-74
2023/04/28 04:50:44;;;;;;;19.55;12.50;;;6.30;99.90;;;;;;5088761;28;20413;-75
2023/04/28 04:53:09;;;;;;;17.65;12.05;;;6.30;99.90;;;;;;5088309;28;20404;-74
2023/04/28 04:55:35;;;;;;;16.37;11.93;;;6.30;99.90;;;;;;5087579;28;20559;-75
2023/04/28 04:58:01;;;;;;;18.77;11.90;;;6.30;99.90;;;;;;5087811;28;20765;-75
2023/04/28 05:00:27;;;;;;;17.37;12.00;;;6.40;99.90;;;;;;5089303;28;20398;-75
2023/04/28 05:02:52;;;;;;;16.25;11.13;;;6.40;99.90;;;;;;5088073;28;20398;-75
2023/04/28 05:05:18;;;;;;;18.17;11.97;;;6.40;99.90;;;;;;5087656;28;20795;-75
2023/04/28 05:07:43;;;;;;;16.50;10.93;;;6.50;99.90;;;;;;5086602;28;20406;-75
2023/04/28 05:10:10;;;;;;;17.85;11.02;;;6.50;99.90;;;;;;5087092;28;20397;-75
2023/04/28 05:12:37;;;;;;;15.20;10.38;;;6.60;99.90;;;;;;5086754;28;20410;-75
2023/04/28 05:15:05;;;;;;;15.05;10.23;;;6.70;99.90;;;;;;5085535;28;20556;-75
2023/04/28 05:17:31;;;;;;;13.35;9.80;;;6.80;99.90;;;;;;5087558;28;20915;-75
2023/04/28 05:19:56;;;;;;;14.60;10.00;;;6.80;99.90;;;;;;5073361;28;20454;-75
2023/04/28 05:22:22;;;;;;;14.77;10.20;;;6.90;99.90;;;;;;5086883;28;20402;-75
2023/04/28 05:24:48;;;;;;;13.38;8.00;;;7.00;99.90;;;;;;5085538;28;20788;-75
2023/04/28 05:27:13;;;;;;;13.83;8.33;;;7.00;99.90;;;;;;5086653;28;20472;-75
2023/04/28 05:29:39;;;;;;;11.70;8.30;;;7.10;99.90;;;;;;5088595;28;20437;-75
2023/04/28 05:32:05;;;;;;;13.70;8.90;;;7.10;99.90;;;;;;5088370;28;20398;-75
2023/04/28 05:34:30;;;;;;;14.05;9.40;;;7.20;99.90;;;;;;5088462;28;20432;-75
2023/04/28 05:36:56;;;;;;;11.95;8.55;;;7.30;99.90;;;;;;5085461;28;20402;-75
2023/04/28 05:39:21;;;;;;;13.23;8.27;;;7.30;99.90;;;;;;5088070;28;20407;-75
2023/04/28 05:41:47;;;;;;;13.00;8.77;;;7.40;99.90;;;;;;5086983;28;20970;-75
2023/04/28 05:44:13;;;;;;;12.90;9.00;;;7.40;99.90;;;;;;5087154;28;20431;-75
2023/04/28 05:46:38;;;;;;;13.90;9.13;;;7.50;99.90;;;;;;5088864;28;20814;-75
2023/04/28 05:49:04;;;;;;;13.00;9.10;;;7.50;99.90;;;;;;5089281;28;20422;-75
2023/04/28 05:51:29;;;;;;;13.63;9.02;;;7.50;99.90;;;;;;5091666;28;20869;-75
2023/04/28 05:53:55;;;;;;;13.50;8.80;;;7.50;99.90;;;;;;5086629;28;20420;-75
2023/04/28 05:56:21;;;;;;;15.05;9.60;;;7.50;99.90;;;;;;5091565;28;20406;-74
2023/04/28 05:58:49;;;;;;;12.53;9.30;;;7.50;99.90;;;;;;5086766;28;20767;-73
2023/04/28 06:01:15;;;;;;;14.55;9.50;;;7.50;99.90;;;;;;5085994;28;20982;-74
2023/04/28 06:03:41;;;;;;;15.75;9.85;;;7.50;99.90;;;;;;5086284;28;20398;-74
2023/04/28 06:06:07;;;;;;;12.37;8.93;;;7.50;99.90;;;;;;5089917;28;20480;-74
2023/04/28 06:08:33;;;;;;;15.03;10.13;;;7.50;99.90;;;;;;5090059;28;20429;-74
2023/04/28 06:10:58;;;;;;;13.73;9.40;;;7.50;99.90;;;;;;5087636;28;20394;-74
2023/04/28 06:13:24;;;;;;;14.53;9.53;;;7.60;99.90;;;;;;5088380;28;20873;-74
2023/04/28 06:15:50;;;;;;;13.60;9.83;;;7.60;99.90;;;;;;5089276;28;20394;-74
2023/04/28 06:18:15;;;;;;;13.82;9.55;;;7.60;99.90;;;;;;5087012;28;20409;-74
2023/04/28 06:20:41;;;;;;;12.10;9.47;;;7.60;99.90;;;;;;5074806;28;20402;-74
2023/04/28 06:23:08;;;;;;;13.65;9.50;;;7.60;99.90;;;;;;5087092;28;20406;-74
2023/04/28 06:25:35;;;;;;;13.90;9.83;;;7.70;99.90;;;;;;5083916;28;20779;-74
2023/04/28 06:28:01;;;;;;;15.75;9.93;;;7.70;99.90;;;;;;5069481;28;20437;-74
2023/04/28 06:30:26;;;;;;;16.33;10.23;;;7.70;99.90;;;;;;5081839;28;20432;-74
2023/04/28 06:32:52;;;;;;;14.73;9.75;;;7.70;99.90;;;;;;5087036;28;20390;-74
2023/04/28 06:35:18;;;;;;;14.27;9.53;;;7.70;99.90;;;;;;5068628;28;20410;-75
2023/04/28 06:37:43;;;;;;;15.35;10.82;;;7.80;99.90;;;;;;5083883;28;20402;-77
2023/04/28 06:40:10;;;;;;;16.63;10.23;;;7.80;99.90;;;;;;5081086;28;20875;-75
2023/04/28 06:42:35;;;;;;;15.10;10.25;;;7.90;99.90;;;;;;5069515;28;20927;-75
2023/04/28 06:45:02;;;;;;;15.93;10.23;;;7.90;99.90;;;;;;5091477;28;20429;-76
2023/04/28 06:47:27;;;;;;;16.27;9.93;;;7.90;99.90;;;;;;5090841;28;21252;-75
2023/04/28 06:49:53;;;;;;;14.83;10.20;;;7.90;99.90;;;;;;5090107;28;20422;-73
2023/04/28 06:52:21;;;;;;;17.75;10.43;;;7.90;99.90;;;;;;5090587;28;20410;-73
2023/04/28 06:54:47;;;;;;;14.52;9.68;;;8.00;99.90;;;;;;5091038;28;20923;-74
2023/04/28 06:57:12;;;;;;;14.57;10.30;;;8.00;99.90;;;;;;5088485;28;20445;-74
2023/04/28 06:59:38;;;;;;;15.52;10.52;;;8.10;99.90;;;;;;5091181;28;20454;-74
2023/04/28 07:02:04;;;;;;;15.40;10.50;;;8.10;99.90;;;;;;5091154;28;20476;-74
2023/04/28 07:04:30;;;;;;;15.40;9.20;;;8.20;99.90;;;;;;5093993;28;20429;-74
2023/04/28 07:06:55;;;;;;;15.57;10.10;;;8.20;99.90;;;;;;5093039;28;20481;-74
2023/04/28 07:09:21;;;;;;;16.25;10.07;;;8.30;99.90;;;;;;5093230;28;21041;-74
2023/04/28 07:11:47;;;;;;;16.00;9.70;;;8.30;99.90;;;;;;5092733;28;20406;-74
2023/04/28 07:14:13;;;;;;;16.52;10.05;;;8.40;99.90;;;;;;5093582;28;20489;-74
2023/04/28 07:16:38;;;;;;;14.67;9.87;;;8.40;99.90;;;;;;5091228;28;20489;-75
2023/04/28 07:19:04;;;;;;;16.60;10.30;;;8.40;99.90;;;;;;5083360;28;20399;-74
2023/04/28 07:21:30;;;;;;;13.88;9.45;;;8.50;99.90;;;;;;5082976;28;20431;-74
2023/04/28 07:23:55;;;;;;;17.13;10.03;;;8.50;99.90;;;;;;5089212;28;20405;-74
2023/04/28 07:26:24;;;;;;;13.20;9.63;;;8.50;99.90;;;;;;5089544;28;20414;-74
2023/04/28 07:28:50;;;;;;;15.60;9.93;;;8.60;99.90;;;;;;5079633;28;20432;-74
2023/04/28 07:31:16;;;;;;;16.60;10.20;;;8.70;99.90;;;;;;5097047;28;20414;-74
2023/04/28 07:33:42;;;;;;;15.53;9.67;;;8.80;99.90;;;;;;5091874;28;20467;-74
2023/04/28 07:36:07;;;;;;;15.13;10.05;;;8.80;99.90;;;;;;5088272;28;20497;-74
2023/04/28 07:38:34;;;;;;;14.53;9.17;;;8.90;99.90;;;;;;5088623;28;20752;-74
2023/04/28 07:41:00;;;;;;;15.13;9.60;;;8.90;99.90;;;;;;5087351;28;20440;-74
2023/04/28 07:43:26;;;;;;;13.73;9.13;;;8.90;99.90;;;;;;5092660;28;20412;-74
2023/04/28 07:45:52;;;;;;;13.48;9.73;;;8.90;99.90;;;;;;5099791;28;20406;-74
2023/04/28 07:48:17;;;;;;;13.57;9.00;;;9.00;99.90;;;;;;5091954;28;20440;-75
2023/04/28 07:50:43;;;;;;;12.15;8.85;;;9.00;99.90;;;;;;5089558;28;20410;-75
2023/04/28 07:53:09;;;;;;;14.77;10.03;;;9.00;99.90;;;;;;5088541;28;20906;-75
2023/04/28 07:55:35;;;;;;;14.90;9.38;;;9.00;99.90;;;;;;5088614;28;20793;-74
2023/04/28 07:58:01;;;;;;;12.93;9.23;;;9.00;99.90;;;;;;5087669;28;20438;-75
2023/04/28 08:00:26;;;;;;;12.63;9.10;;;9.00;99.90;;;;;;5089495;28;20464;-74
2023/04/28 08:02:52;;;;;;;15.13;9.37;;;9.10;99.90;;;;;;5088255;28;20421;-75
2023/04/28 08:05:18;;;;;;;13.32;9.48;;;9.10;99.90;;;;;;5088947;28;20502;-75
2023/04/28 08:07:43;;;;;;;13.47;9.40;;;9.20;99.90;;;;;;5091881;28;20419;-74
2023/04/28 08:10:10;;;;;;;15.27;9.87;;;9.20;99.90;;;;;;5107032;28;20405;-75
2023/04/28 08:12:37;;;;;;;15.85;9.70;;;9.30;99.90;;;;;;5091933;28;20419;-75
2023/04/28 08:15:03;;;;;;;14.10;8.45;;;9.30;99.90;;;;;;5107433;28;20404;-75
2023/04/28 08:17:28;;;;;;;12.70;8.43;;;9.40;99.90;;;;;;5090875;28;20466;-75
2023/04/28 08:19:54;;;;;;;11.50;8.07;;;9.40;99.90;;;;;;5088992;28;20406;-75
2023/04/28 08:22:20;;;;;;;12.83;9.07;;;9.40;99.90;;;;;;5088941;28;20496;-74
2023/04/28 08:24:45;;;;;;;12.02;8.70;;;9.40;99.90;;;;;;5089524;28;20795;-74
2023/04/28 08:27:11;;;;;;;12.33;8.90;;;9.30;99.90;;;;;;5087960;28;20784;-75
2023/04/28 08:29:39;;;;;;;12.10;8.40;;;9.30;99.90;;;;;;5087852;28;20433;-75
2023/04/28 08:32:05;;;;;;;14.73;9.73;;;9.30;99.90;;;;;;5088178;28;20412;-72
2023/04/28 08:34:31;;;;;;;13.73;9.60;;;9.30;99.90;;;;;;5086442;28;20398;-73
2023/04/28 08:36:57;;;;;;;14.27;9.20;;;9.40;99.90;;;;;;5087749;28;20528;-78
2023/04/28 08:39:25;;;;;;;13.48;9.45;;;9.40;99.90;;;;;;5088606;28;20959;-73
2023/04/28 08:41:51;;;;;;;12.83;9.40;;;9.40;99.90;;;;;;5094525;28;20489;-73
2023/04/28 08:44:17;;;;;;;12.75;9.10;;;9.50;99.90;;;;;;5086593;28;20479;-74
2023/04/28 08:46:44;;;;;;;14.37;9.10;;;9.50;99.90;;;;;;5085199;28;20405;-74
2023/04/28 08:49:17;;;;;;;14.38;9.23;;;9.50;99.90;;;;;;5087049;28;20427;-74
2023/04/28 08:51:57;;;;;;;13.60;9.50;;;9.50;99.90;;;;;;5088247;28;20402;-74
2023/04/28 08:54:29;;;;;;;15.55;9.50;;;9.50;99.90;;;;;;5085684;28;20448;-74
2023/04/28 08:56:56;;;;;;;17.42;11.40;;;9.50;99.90;;;;;;5081969;28;20429;-74
2023/04/28 08:59:21;;;;;;;14.45;9.55;;;9.60;99.90;;;;;;5087057;28;20410;-74
2023/04/28 09:01:48;;;;;;;13.88;10.25;;;9.60;99.90;;;;;;5087841;28;20410;-74
2023/04/28 09:04:16;;;;;;;14.25;10.02;;;9.60;99.90;;;;;;5087562;28;20402;-74
2023/04/28 09:06:41;;;;;;;14.07;9.48;;;9.60;99.90;;;;;;5086179;28;20425;-74
2023/04/28 09:09:21;;;;;;;12.70;8.98;;;9.70;99.90;;;;;;5085594;28;20441;-74
2023/04/28 09:12:01;;;;;;;14.85;8.85;;;9.70;99.90;;;;;;5087514;28;20497;-74
2023/04/28 09:14:27;;;;;;;11.98;8.50;;;9.80;99.90;;;;;;5083491;28;20404;-74
2023/04/28 09:16:53;;;;;;;12.35;7.97;;;9.80;99.90;;;;;;5082075;28;20497;-74
2023/04/28 09:19:20;;;;;;;13.15;8.80;;;9.90;99.90;;;;;;5083100;28;20497;-73
2023/04/28 09:21:54;;;;;;;12.70;8.60;;;9.90;99.90;;;;;;5099288;28;20848;-72
2023/04/28 09:24:33;;;;;;;11.95;8.63;;;9.90;99.90;;;;;;5085582;28;20421;-73
2023/04/28 09:27:01;;;;;;;13.05;8.63;;;9.90;99.90;;;;;;5087515;28;20838;-73
2023/04/28 09:29:28;;;;;;;12.35;8.50;;;9.90;99.90;;;;;;5086758;28;20453;-80
2023/04/28 09:31:54;;;;;;;11.27;7.65;;;9.90;99.90;;;;;;5088731;28;20417;-74
2023/04/28 09:34:22;;;;;;;13.57;8.63;;;9.90;99.90;;;;;;5088710;28;20432;-74
2023/04/28 09:36:48;;;;;;;13.73;8.68;;;9.90;99.90;;;;;;5086059;28;20564;-73
2023/04/28 09:39:13;;;;;;;12.30;8.20;;;9.90;99.90;;;;;;5089056;28;20488;-74
2023/04/28 09:41:44;;;;;;;13.93;8.63;;;9.90;99.90;;;;;;5092465;28;20418;-74
2023/04/28 09:44:20;;;;;;;12.90;8.27;;;9.90;99.90;;;;;;5091007;28;20402;-74
2023/04/28 09:46:46;;;;;;;14.15;8.73;;;10.00;99.90;;;;;;5089375;28;20499;-74
2023/04/28 09:49:13;;;;;;;11.43;8.60;;;10.10;99.90;;;;;;5090723;28;20978;-74
2023/04/28 09:51:39;;;;;;;10.65;8.50;;;10.10;99.90;;;;;;5089685;28;20408;-74
2023/04/28 09:54:05;;;;;;;13.65;8.75;;;10.20;99.90;;;;;;5091768;28;20426;-74
2023/04/28 09:56:33;;;;;;;12.93;8.75;;;10.30;99.90;;;;;;5089285;28;20406;-74
2023/04/28 09:59:00;;;;;;;16.48;8.57;;;10.40;99.90;;;;;;5087556;28;20760;-74
2023/04/28 10:01:47;;;;;;;13.75;8.73;;;10.70;99.90;;;;;;5090873;28;20440;-74
2023/04/28 10:04:13;;;;;;;11.35;8.48;;;11.00;99.90;;;;;;5094039;28;20413;-74
2023/04/28 10:06:39;;;;;;;14.70;7.97;;;11.40;99.90;;;;;;5093253;28;20402;-74
2023/04/28 10:09:06;;;;;;;11.18;7.78;;;11.70;99.90;;;;;;5098097;28;20416;-74
2023/04/28 10:11:33;;;;;;;10.73;6.85;;;12.20;99.90;;;;;;5094241;28;20429;-74
2023/04/28 10:13:59;;;;;;;11.85;7.40;;;12.90;99.90;;;;;;5078312;28;20451;-74
2023/04/28 10:16:28;;;;;;;9.17;7.20;;;13.20;99.90;;;;;;5093347;28;20414;-75
2023/04/28 10:18:55;;;;;;;10.00;7.32;;;13.50;99.90;;;;;;5090303;28;20774;-74
2023/04/28 10:21:23;;;;;;;11.02;6.78;;;14.10;99.90;;;;;;5072878;28;20446;-74
2023/04/28 10:23:58;;;;;;;10.45;6.90;;;14.30;99.90;;;;;;5091651;28;20406;-74
2023/04/28 10:26:52;;;;;;;9.48;7.35;;;14.40;99.90;;;;;;5091244;28;20421;-74
2023/04/28 10:29:23;;;;;;;10.13;7.13;;;14.50;99.90;;;;;;5091400;28;20433;-75
2023/04/28 10:32:15;;;;;;;12.23;7.20;;;14.60;99.90;;;;;;5090139;28;20410;-74
2023/04/28 10:34:41;;;;;;;13.32;7.82;;;14.60;99.90;;;;;;5090042;28;20775;-74
2023/04/28 10:37:06;;;;;;;11.32;7.55;;;14.70;99.90;;;;;;5090477;28;20402;-74
2023/04/28 10:39:32;;;;;;;9.83;7.30;;;14.70;99.90;;;;;;5089350;28;20441;-74
2023/04/28 10:41:57;;;;;;;11.07;7.45;;;14.70;99.90;;;;;;5091325;28;20410;-74
2023/04/28 10:44:29;;;;;;;12.03;7.43;;;14.70;99.90;;;;;;5090081;28;20406;-74
2023/04/28 10:47:02;;;;;;;9.77;7.17;;;14.60;99.90;;;;;;5091567;28;20398;-74
2023/04/28 10:49:53;;;;;;;11.82;7.20;;;14.60;99.90;;;;;;5090068;28;20433;-72
2023/04/28 10:52:45;;;;;;;11.60;7.60;;;14.30;99.90;;;;;;5089682;28;20418;-72
2023/04/28 10:55:36;;;;;;;10.63;7.88;;;14.10;99.90;;;;;;5084764;28;20516;-72
2023/04/28 10:58:26;;;;;;;11.93;7.55;;;14.00;99.90;;;;;;5088145;28;20472;-75
2023/04/28 11:00:51;;;;;;;11.25;7.90;;;13.80;99.90;;;;;;5105700;28;20444;-74
2023/04/28 11:03:41;;;;;;;10.87;7.60;;;13.70;99.90;;;;;;5107061;28;20439;-74
2023/04/28 11:06:27;;;;;;;10.65;7.45;;;13.60;99.90;;;;;;5088566;28;20412;-74
2023/04/28 11:09:17;;;;;;;10.98;8.10;;;13.50;99.90;;;;;;5092151;28;20436;-74
2023/04/28 11:12:05;;;;;;;10.05;7.93;;;13.50;99.90;;;;;;5036809;28;20497;-74
2023/04/28 11:14:36;;;;;;;10.73;7.60;;;13.40;99.90;;;;;;5090326;28;20417;-74
2023/04/28 11:17:06;;;;;;;12.80;8.60;;;13.40;99.90;;;;;;5105947;28;20404;-74
2023/04/28 11:19:32;;;;;;;10.82;8.35;;;13.30;99.90;;;;;;5084983;28;20428;-74
2023/04/28 11:22:10;;;;;;;10.23;8.02;;;13.30;99.90;;;;;;5070126;28;20490;-74
2023/04/28 11:24:36;;;;;;;10.75;7.85;;;13.20;99.90;;;;;;5101676;28;21206;-74
2023/04/28 11:27:02;;;;;;;11.57;8.48;;;13.10;99.90;;;;;;5094711;28;20442;-74
2023/04/28 11:29:32;;;;;;;12.33;8.57;;;13.00;99.90;;;;;;5096414;28;20717;-74
2023/04/28 11:31:58;;;;;;;13.95;9.02;;;13.00;99.90;;;;;;5090519;27;20509;-74
2023/04/28 11:34:24;;;;;;;11.93;8.75;;;12.90;99.90;;;;;;5089796;28;20473;-74
2023/04/28 11:36:49;;;;;;;14.30;9.25;;;12.90;99.90;;;;;;5090208;28;20804;-74
2023/04/28 11:39:15;;;;;;;12.37;9.50;;;12.80;99.90;;;;;;5088851;28;20410;-74
2023/04/28 11:41:44;;;;;;;12.10;9.48;;;12.80;99.90;;;;;;5089587;28;20448;-74
2023/04/28 11:44:20;;;;;;;13.93;9.63;;;12.60;99.90;;;;;;5088657;28;20402;-74
2023/04/28 11:46:50;;;;;;;12.77;10.40;;;12.60;99.90;;;;;;5078672;28;20410;-74
2023/04/28 11:49:17;;;;;;;13.00;10.13;;;12.50;99.90;;;;;;5089169;28;20517;-74
2023/04/28 11:51:48;;;;;;;13.30;10.00;;;12.40;99.90;;;;;;5090069;28;20413;-74
2023/04/28 11:54:18;;;;;;;13.38;10.10;;;12.40;99.90;;;;;;5088734;28;20406;-74
2023/04/28 11:56:44;;;;;;;13.93;11.13;;;12.40;99.90;;;;;;5089519;28;20409;-75
2023/04/28 11:59:11;;;;;;;16.77;11.35;;;12.40;99.90;;;;;;5090198;28;20465;-74
2023/04/28 12:01:52;;;;;;;15.13;10.82;;;12.30;99.90;;;;;;5089585;28;20763;-74
2023/04/28 12:04:38;;;;;;;15.23;11.53;;;12.30;99.90;;;;;;5090046;28;20417;-74
2023/04/28 12:07:09;;;;;;;16.42;11.98;;;12.40;99.90;;;;;;5088431;28;20410;-75
2023/04/28 12:09:36;;;;;;;15.90;11.65;;;12.50;99.90;;;;;;5088130;28;20509;-74
2023/04/28 12:12:07;;;;;;;15.48;11.52;;;12.50;99.90;;;;;;5089932;28;20400;-75
2023/04/28 12:14:54;;;;;;;15.10;11.55;;;12.50;99.90;;;;;;5089444;28;20402;-75
2023/04/28 12:17:33;;;;;;;14.82;11.88;;;12.50;99.90;;;;;;5088247;28;20944;-74
2023/04/28 12:20:01;;;;;;;14.60;11.52;;;12.40;99.90;;;;;;5088746;28;20413;-74
2023/04/28 12:22:27;;;;;;;15.98;11.82;;;12.40;99.90;;;;;;5089474;28;20402;-75
2023/04/28 12:25:07;;;;;;;15.07;12.55;;;12.40;99.90;;;;;;5072128;28;20449;-75
2023/04/28 12:27:34;;;;;;;15.50;12.53;;;12.40;99.90;;;;;;5108808;28;20407;-74
2023/04/28 12:30:00;;;;;;;16.33;13.17;;;12.40;99.90;;;;;;5073292;28;20518;-75
2023/04/28 12:32:40;;;;;;;15.57;11.57;;;12.30;99.90;;;;;;5099184;28;20508;-75
2023/04/28 12:35:06;;;;;;;13.80;11.60;;;12.30;99.90;;;;;;5087258;28;20407;-74
2023/04/28 12:37:32;;;;;;;16.63;11.77;;;12.20;99.90;;;;;;5090038;28;20394;-74
2023/04/28 12:39:58;;;;;;;15.50;11.80;;;12.10;99.90;;;;;;5086414;28;20949;-74
2023/04/28 12:42:24;;;;;;;16.85;12.23;;;12.10;99.90;;;;;;5078877;28;20408;-74
2023/04/28 12:44:49;;;;;;;15.10;11.33;;;12.10;99.90;;;;;;5084305;28;20402;-74